sensor_id;sensor_type;location;lat;lon;timestamp;P1;durP1;ratioP1;P2;durP2;ratioP2
966;SDS011;56108;48.730;9.304;2024-01-15T00:01:54;20.08;;;11.02;;
966;SDS011;56108;48.730;9.304;2024-01-15T00:04:02;18.33;;;11.20;;
966;SDS011;56108;48.730;9.304;2024-01-15T00:06:14;12.75;;;7.95;;
966;SDS011;56108;48.730;9.304;2024-01-15T00:08:22;10.52;;;8.05;;
966;SDS011;56108;48.730;9.304;2024-01-15T00:10:31;10.18;;;8.38;;
966;SDS011;56108;48.730;9.304;2024-01-15T00:12:39;14.60;;;6.35;;
966;SDS011;56108;48.730;9.304;2024-01-15T00:14:48;15.02;;;7.40;;
966;SDS011;56108;48.730;9.304;2024-01-15T00:16:56;13.43;;;6.18;;
966;SDS011;56108;48.730;9.304;2024-01-15T00:19:05;9.07;;;6.55;;
966;SDS011;56108;48.730;9.304;2024-01-15T00:21:16;8.07;;;5.15;;
966;SDS011;56108;48.730;9.304;2024-01-15T00:23:24;11.73;;;6.22;;
966;SDS011;56108;48.730;9.304;2024-01-15T00:25:32;10.50;;;5.93;;
966;SDS011;56108;48.730;9.304;2024-01-15T00:27:41;5.85;;;3.90;;
966;SDS011;56108;48.730;9.304;2024-01-15T00:29:50;7.30;;;5.28;;
966;SDS011;56108;48.730;9.304;2024-01-15T00:31:59;6.63;;;4.72;;
966;SDS011;56108;48.730;9.304;2024-01-15T00:34:07;13.40;;;5.75;;
966;SDS011;56108;48.730;9.304;2024-01-15T00:36:19;9.20;;;4.22;;
966;SDS011;56108;48.730;9.304;2024-01-15T00:38:27;8.77;;;5.13;;
966;SDS011;56108;48.730;9.304;2024-01-15T00:40:35;5.15;;;4.00;;
966;SDS011;56108;48.730;9.304;2024-01-15T00:42:44;9.32;;;4.57;;
966;SDS011;56108;48.730;9.304;2024-01-15T00:44:50;7.38;;;5.78;;
966;SDS011;56108;48.730;9.304;2024-01-15T00:46:59;9.50;;;5.43;;
966;SDS011;56108;48.730;9.304;2024-01-15T00:49:07;5.90;;;4.20;;
966;SDS011;56108;48.730;9.304;2024-01-15T00:51:19;9.10;;;5.50;;
966;SDS011;56108;48.730;9.304;2024-01-15T00:53:28;11.60;;;5.75;;
966;SDS011;56108;48.730;9.304;2024-01-15T00:55:36;5.13;;;3.92;;
966;SDS011;56108;48.730;9.304;2024-01-15T00:57:45;4.15;;;3.75;;
966;SDS011;56108;48.730;9.304;2024-01-15T00:59:54;8.85;;;6.00;;
966;SDS011;56108;48.730;9.304;2024-01-15T01:02:04;10.43;;;4.55;;
966;SDS011;56108;48.730;9.304;2024-01-15T01:04:12;7.80;;;4.28;;
966;SDS011;56108;48.730;9.304;2024-01-15T01:06:24;7.22;;;4.20;;
966;SDS011;56108;48.730;9.304;2024-01-15T01:08:36;8.50;;;4.97;;
966;SDS011;56108;48.730;9.304;2024-01-15T01:10:44;5.18;;;3.80;;
966;SDS011;56108;48.730;9.304;2024-01-15T01:12:52;7.28;;;4.00;;
966;SDS011;56108;48.730;9.304;2024-01-15T01:15:01;11.57;;;6.38;;
966;SDS011;56108;48.730;9.304;2024-01-15T01:17:10;6.95;;;4.50;;
966;SDS011;56108;48.730;9.304;2024-01-15T01:19:19;7.07;;;4.18;;
966;SDS011;56108;48.730;9.304;2024-01-15T01:21:30;6.43;;;4.93;;
966;SDS011;56108;48.730;9.304;2024-01-15T01:23:39;7.57;;;4.85;;
966;SDS011;56108;48.730;9.304;2024-01-15T01:25:47;5.78;;;4.40;;
966;SDS011;56108;48.730;9.304;2024-01-15T01:27:56;10.10;;;4.20;;
966;SDS011;56108;48.730;9.304;2024-01-15T01:30:05;8.35;;;4.78;;
966;SDS011;56108;48.730;9.304;2024-01-15T01:32:15;4.18;;;3.78;;
966;SDS011;56108;48.730;9.304;2024-01-15T01:34:24;5.95;;;4.82;;
966;SDS011;56108;48.730;9.304;2024-01-15T01:36:39;4.22;;;3.92;;
966;SDS011;56108;48.730;9.304;2024-01-15T01:38:47;4.82;;;3.70;;
966;SDS011;56108;48.730;9.304;2024-01-15T01:40:57;5.43;;;4.10;;
966;SDS011;56108;48.730;9.304;2024-01-15T01:43:05;7.43;;;3.25;;
966;SDS011;56108;48.730;9.304;2024-01-15T01:45:14;4.53;;;4.13;;
966;SDS011;56108;48.730;9.304;2024-01-15T01:47:22;6.45;;;5.00;;
966;SDS011;56108;48.730;9.304;2024-01-15T01:49:31;6.00;;;4.43;;
966;SDS011;56108;48.730;9.304;2024-01-15T01:51:44;9.68;;;5.05;;
966;SDS011;56108;48.730;9.304;2024-01-15T01:53:54;5.68;;;4.57;;
966;SDS011;56108;48.730;9.304;2024-01-15T01:56:03;5.07;;;4.45;;
966;SDS011;56108;48.730;9.304;2024-01-15T01:58:12;7.43;;;4.13;;
966;SDS011;56108;48.730;9.304;2024-01-15T02:00:20;7.22;;;4.55;;
966;SDS011;56108;48.730;9.304;2024-01-15T02:02:30;7.95;;;6.30;;
966;SDS011;56108;48.730;9.304;2024-01-15T02:04:39;5.65;;;4.38;;
966;SDS011;56108;48.730;9.304;2024-01-15T02:06:48;11.27;;;5.47;;
966;SDS011;56108;48.730;9.304;2024-01-15T02:08:57;5.93;;;3.60;;
966;SDS011;56108;48.730;9.304;2024-01-15T02:11:06;8.32;;;4.80;;
966;SDS011;56108;48.730;9.304;2024-01-15T02:13:15;6.93;;;5.35;;
966;SDS011;56108;48.730;9.304;2024-01-15T02:15:23;8.52;;;3.88;;
966;SDS011;56108;48.730;9.304;2024-01-15T02:17:31;6.95;;;4.00;;
966;SDS011;56108;48.730;9.304;2024-01-15T02:19:38;6.93;;;4.50;;
966;SDS011;56108;48.730;9.304;2024-01-15T02:21:50;5.13;;;3.97;;
966;SDS011;56108;48.730;9.304;2024-01-15T02:24:01;5.70;;;4.63;;
966;SDS011;56108;48.730;9.304;2024-01-15T02:26:09;8.65;;;6.50;;
966;SDS011;56108;48.730;9.304;2024-01-15T02:28:18;5.57;;;5.05;;
966;SDS011;56108;48.730;9.304;2024-01-15T02:30:27;8.43;;;5.00;;
966;SDS011;56108;48.730;9.304;2024-01-15T02:32:36;11.63;;;3.58;;
966;SDS011;56108;48.730;9.304;2024-01-15T02:34:46;6.45;;;4.20;;
966;SDS011;56108;48.730;9.304;2024-01-15T02:36:54;4.63;;;4.20;;
966;SDS011;56108;48.730;9.304;2024-01-15T02:39:06;6.65;;;4.10;;
966;SDS011;56108;48.730;9.304;2024-01-15T02:41:14;8.60;;;4.43;;
966;SDS011;56108;48.730;9.304;2024-01-15T02:43:20;4.97;;;4.43;;
966;SDS011;56108;48.730;9.304;2024-01-15T02:45:28;7.53;;;4.28;;
966;SDS011;56108;48.730;9.304;2024-01-15T02:47:37;7.03;;;4.00;;
966;SDS011;56108;48.730;9.304;2024-01-15T02:49:48;8.05;;;4.30;;
966;SDS011;56108;48.730;9.304;2024-01-15T02:51:57;3.40;;;3.10;;
966;SDS011;56108;48.730;9.304;2024-01-15T02:54:08;7.43;;;4.32;;
966;SDS011;56108;48.730;9.304;2024-01-15T02:56:16;6.50;;;4.50;;
966;SDS011;56108;48.730;9.304;2024-01-15T02:58:25;9.50;;;6.63;;
966;SDS011;56108;48.730;9.304;2024-01-15T03:00:33;7.30;;;4.22;;
966;SDS011;56108;48.730;9.304;2024-01-15T03:02:44;8.30;;;5.47;;
966;SDS011;56108;48.730;9.304;2024-01-15T03:04:53;6.53;;;5.10;;
966;SDS011;56108;48.730;9.304;2024-01-15T03:07:02;7.15;;;5.00;;
966;SDS011;56108;48.730;9.304;2024-01-15T03:09:13;3.75;;;3.40;;
966;SDS011;56108;48.730;9.304;2024-01-15T03:11:21;4.35;;;3.45;;
966;SDS011;56108;48.730;9.304;2024-01-15T03:13:30;5.88;;;3.70;;
966;SDS011;56108;48.730;9.304;2024-01-15T03:15:39;9.70;;;4.53;;
966;SDS011;56108;48.730;9.304;2024-01-15T03:17:48;4.65;;;2.83;;
966;SDS011;56108;48.730;9.304;2024-01-15T03:19:56;5.65;;;4.55;;
966;SDS011;56108;48.730;9.304;2024-01-15T03:22:05;8.85;;;3.97;;
966;SDS011;56108;48.730;9.304;2024-01-15T03:24:16;7.88;;;4.22;;
966;SDS011;56108;48.730;9.304;2024-01-15T03:26:25;6.95;;;3.55;;
966;SDS011;56108;48.730;9.304;2024-01-15T03:28:35;8.93;;;4.57;;
966;SDS011;56108;48.730;9.304;2024-01-15T03:30:44;8.30;;;5.78;;
966;SDS011;56108;48.730;9.304;2024-01-15T03:32:53;9.27;;;3.25;;
966;SDS011;56108;48.730;9.304;2024-01-15T03:35:18;6.00;;;4.00;;
966;SDS011;56108;48.730;9.304;2024-01-15T03:37:26;4.90;;;4.53;;
966;SDS011;56108;48.730;9.304;2024-01-15T03:39:38;5.70;;;4.05;;
966;SDS011;56108;48.730;9.304;2024-01-15T03:41:46;7.05;;;4.15;;
966;SDS011;56108;48.730;9.304;2024-01-15T03:43:55;8.20;;;4.25;;
966;SDS011;56108;48.730;9.304;2024-01-15T03:46:03;8.07;;;4.57;;
966;SDS011;56108;48.730;9.304;2024-01-15T03:48:12;5.07;;;4.63;;
966;SDS011;56108;48.730;9.304;2024-01-15T03:50:21;6.07;;;4.45;;
966;SDS011;56108;48.730;9.304;2024-01-15T03:52:30;6.93;;;3.83;;
966;SDS011;56108;48.730;9.304;2024-01-15T03:54:41;6.50;;;3.55;;
966;SDS011;56108;48.730;9.304;2024-01-15T03:56:50;5.65;;;3.63;;
966;SDS011;56108;48.730;9.304;2024-01-15T03:58:58;6.35;;;3.45;;
966;SDS011;56108;48.730;9.304;2024-01-15T04:01:07;8.88;;;3.72;;
966;SDS011;56108;48.730;9.304;2024-01-15T04:03:17;7.68;;;4.22;;
966;SDS011;56108;48.730;9.304;2024-01-15T04:05:26;4.38;;;3.20;;
966;SDS011;56108;48.730;9.304;2024-01-15T04:07:35;10.05;;;6.05;;
966;SDS011;56108;48.730;9.304;2024-01-15T04:09:46;5.55;;;4.28;;
966;SDS011;56108;48.730;9.304;2024-01-15T04:11:54;2.38;;;2.17;;
966;SDS011;56108;48.730;9.304;2024-01-15T04:14:03;6.28;;;3.40;;
966;SDS011;56108;48.730;9.304;2024-01-15T04:16:11;3.67;;;3.30;;
966;SDS011;56108;48.730;9.304;2024-01-15T04:18:22;10.48;;;5.85;;
966;SDS011;56108;48.730;9.304;2024-01-15T04:20:31;6.45;;;3.58;;
966;SDS011;56108;48.730;9.304;2024-01-15T04:22:41;7.13;;;4.50;;
966;SDS011;56108;48.730;9.304;2024-01-15T04:24:54;9.20;;;5.13;;
966;SDS011;56108;48.730;9.304;2024-01-15T04:27:03;4.72;;;4.32;;
966;SDS011;56108;48.730;9.304;2024-01-15T04:29:15;5.50;;;4.05;;
966;SDS011;56108;48.730;9.304;2024-01-15T04:31:24;6.55;;;4.63;;
966;SDS011;56108;48.730;9.304;2024-01-15T04:33:33;4.03;;;3.47;;
966;SDS011;56108;48.730;9.304;2024-01-15T04:35:41;6.43;;;4.00;;
966;SDS011;56108;48.730;9.304;2024-01-15T04:37:50;6.43;;;3.97;;
966;SDS011;56108;48.730;9.304;2024-01-15T04:40:02;4.85;;;4.45;;
966;SDS011;56108;48.730;9.304;2024-01-15T04:42:10;3.17;;;2.85;;
966;SDS011;56108;48.730;9.304;2024-01-15T04:44:22;7.63;;;2.45;;
966;SDS011;56108;48.730;9.304;2024-01-15T04:46:30;5.95;;;4.68;;
966;SDS011;56108;48.730;9.304;2024-01-15T04:48:38;4.43;;;4.13;;
966;SDS011;56108;48.730;9.304;2024-01-15T04:50:47;10.38;;;3.63;;
966;SDS011;56108;48.730;9.304;2024-01-15T04:52:56;10.00;;;5.50;;
966;SDS011;56108;48.730;9.304;2024-01-15T04:55:07;6.93;;;5.00;;
966;SDS011;56108;48.730;9.304;2024-01-15T04:57:13;6.78;;;5.30;;
966;SDS011;56108;48.730;9.304;2024-01-15T04:59:21;5.85;;;5.20;;
966;SDS011;56108;48.730;9.304;2024-01-15T05:01:30;7.65;;;4.70;;
966;SDS011;56108;48.730;9.304;2024-01-15T05:03:40;6.30;;;4.65;;
966;SDS011;56108;48.730;9.304;2024-01-15T05:05:48;4.20;;;2.53;;
966;SDS011;56108;48.730;9.304;2024-01-15T05:07:57;9.95;;;4.85;;
966;SDS011;56108;48.730;9.304;2024-01-15T05:10:09;6.95;;;4.35;;
966;SDS011;56108;48.730;9.304;2024-01-15T05:12:17;6.78;;;4.22;;
966;SDS011;56108;48.730;9.304;2024-01-15T05:14:26;4.53;;;4.13;;
966;SDS011;56108;48.730;9.304;2024-01-15T05:16:34;5.05;;;4.50;;
966;SDS011;56108;48.730;9.304;2024-01-15T05:18:42;6.55;;;4.00;;
966;SDS011;56108;48.730;9.304;2024-01-15T05:20:51;3.78;;;2.65;;
966;SDS011;56108;48.730;9.304;2024-01-15T05:23:00;5.05;;;2.88;;
966;SDS011;56108;48.730;9.304;2024-01-15T05:25:11;9.55;;;4.85;;
966;SDS011;56108;48.730;9.304;2024-01-15T05:27:20;4.32;;;3.55;;
966;SDS011;56108;48.730;9.304;2024-01-15T05:29:28;11.43;;;4.68;;
966;SDS011;56108;48.730;9.304;2024-01-15T05:31:37;5.57;;;5.07;;
966;SDS011;56108;48.730;9.304;2024-01-15T05:33:46;9.40;;;4.63;;
966;SDS011;56108;48.730;9.304;2024-01-15T05:35:54;8.20;;;5.65;;
966;SDS011;56108;48.730;9.304;2024-01-15T05:38:03;8.95;;;4.88;;
966;SDS011;56108;48.730;9.304;2024-01-15T05:40:15;8.45;;;5.88;;
966;SDS011;56108;48.730;9.304;2024-01-15T05:42:24;7.10;;;3.60;;
966;SDS011;56108;48.730;9.304;2024-01-15T05:44:35;6.80;;;4.78;;
966;SDS011;56108;48.730;9.304;2024-01-15T05:46:43;7.28;;;5.00;;
966;SDS011;56108;48.730;9.304;2024-01-15T05:48:52;8.25;;;5.90;;
966;SDS011;56108;48.730;9.304;2024-01-15T05:51:00;6.38;;;4.47;;
966;SDS011;56108;48.730;9.304;2024-01-15T05:53:09;5.13;;;4.15;;
966;SDS011;56108;48.730;9.304;2024-01-15T05:55:20;8.27;;;4.57;;
966;SDS011;56108;48.730;9.304;2024-01-15T05:57:25;6.03;;;4.35;;
966;SDS011;56108;48.730;9.304;2024-01-15T05:59:34;4.30;;;4.00;;
966;SDS011;56108;48.730;9.304;2024-01-15T06:01:42;9.00;;;5.00;;
966;SDS011;56108;48.730;9.304;2024-01-15T06:03:51;9.50;;;5.38;;
966;SDS011;56108;48.730;9.304;2024-01-15T06:06:00;4.78;;;4.28;;
966;SDS011;56108;48.730;9.304;2024-01-15T06:08:09;4.90;;;3.38;;
966;SDS011;56108;48.730;9.304;2024-01-15T06:10:14;3.78;;;3.50;;
966;SDS011;56108;48.730;9.304;2024-01-15T06:12:26;5.95;;;4.20;;
966;SDS011;56108;48.730;9.304;2024-01-15T06:14:32;3.97;;;3.03;;
966;SDS011;56108;48.730;9.304;2024-01-15T06:16:41;12.38;;;6.60;;
966;SDS011;56108;48.730;9.304;2024-01-15T06:18:49;7.03;;;5.15;;
966;SDS011;56108;48.730;9.304;2024-01-15T06:20:57;6.13;;;4.85;;
966;SDS011;56108;48.730;9.304;2024-01-15T06:23:06;7.38;;;4.82;;
966;SDS011;56108;48.730;9.304;2024-01-15T06:25:14;9.07;;;5.13;;
966;SDS011;56108;48.730;9.304;2024-01-15T06:27:22;4.55;;;3.92;;
966;SDS011;56108;48.730;9.304;2024-01-15T06:29:37;12.07;;;5.22;;
966;SDS011;56108;48.730;9.304;2024-01-15T06:31:47;6.97;;;4.35;;
966;SDS011;56108;48.730;9.304;2024-01-15T06:33:56;6.50;;;5.90;;
966;SDS011;56108;48.730;9.304;2024-01-15T06:36:05;10.90;;;4.90;;
966;SDS011;56108;48.730;9.304;2024-01-15T06:38:14;8.05;;;5.30;;
966;SDS011;56108;48.730;9.304;2024-01-15T06:40:23;7.85;;;5.75;;
966;SDS011;56108;48.730;9.304;2024-01-15T06:42:34;6.82;;;5.78;;
966;SDS011;56108;48.730;9.304;2024-01-15T06:44:42;4.32;;;3.92;;
966;SDS011;56108;48.730;9.304;2024-01-15T06:46:51;5.53;;;4.10;;
966;SDS011;56108;48.730;9.304;2024-01-15T06:49:02;8.35;;;3.95;;
966;SDS011;56108;48.730;9.304;2024-01-15T06:51:10;6.50;;;4.20;;
966;SDS011;56108;48.730;9.304;2024-01-15T06:53:19;2.97;;;2.20;;
966;SDS011;56108;48.730;9.304;2024-01-15T06:55:27;7.53;;;5.55;;
966;SDS011;56108;48.730;9.304;2024-01-15T06:57:39;8.02;;;4.70;;
966;SDS011;56108;48.730;9.304;2024-01-15T06:59:47;7.40;;;4.78;;
966;SDS011;56108;48.730;9.304;2024-01-15T07:01:56;5.70;;;4.32;;
966;SDS011;56108;48.730;9.304;2024-01-15T07:04:05;4.57;;;3.65;;
966;SDS011;56108;48.730;9.304;2024-01-15T07:06:13;10.32;;;7.05;;
966;SDS011;56108;48.730;9.304;2024-01-15T07:08:21;6.95;;;4.13;;
966;SDS011;56108;48.730;9.304;2024-01-15T07:10:30;7.93;;;5.50;;
966;SDS011;56108;48.730;9.304;2024-01-15T07:12:44;9.20;;;5.40;;
966;SDS011;56108;48.730;9.304;2024-01-15T07:14:53;6.45;;;4.35;;
966;SDS011;56108;48.730;9.304;2024-01-15T07:17:02;5.72;;;4.90;;
966;SDS011;56108;48.730;9.304;2024-01-15T07:19:11;7.05;;;4.90;;
966;SDS011;56108;48.730;9.304;2024-01-15T07:21:20;6.28;;;3.95;;
966;SDS011;56108;48.730;9.304;2024-01-15T07:23:31;8.68;;;4.68;;
966;SDS011;56108;48.730;9.304;2024-01-15T07:25:40;7.60;;;4.15;;
966;SDS011;56108;48.730;9.304;2024-01-15T07:27:53;8.00;;;4.10;;
966;SDS011;56108;48.730;9.304;2024-01-15T07:30:02;2.92;;;2.63;;
966;SDS011;56108;48.730;9.304;2024-01-15T07:32:11;7.45;;;4.72;;
966;SDS011;56108;48.730;9.304;2024-01-15T07:34:20;5.05;;;3.97;;
966;SDS011;56108;48.730;9.304;2024-01-15T07:36:29;4.07;;;3.53;;
966;SDS011;56108;48.730;9.304;2024-01-15T07:38:40;4.65;;;3.90;;
966;SDS011;56108;48.730;9.304;2024-01-15T07:40:49;8.02;;;4.90;;
966;SDS011;56108;48.730;9.304;2024-01-15T07:43:05;9.27;;;3.90;;
966;SDS011;56108;48.730;9.304;2024-01-15T07:45:14;5.50;;;2.95;;
966;SDS011;56108;48.730;9.304;2024-01-15T07:47:23;6.47;;;4.50;;
966;SDS011;56108;48.730;9.304;2024-01-15T07:49:32;5.68;;;3.38;;
966;SDS011;56108;48.730;9.304;2024-01-15T07:51:41;7.20;;;4.82;;
966;SDS011;56108;48.730;9.304;2024-01-15T07:53:53;4.30;;;3.97;;
966;SDS011;56108;48.730;9.304;2024-01-15T07:56:02;12.40;;;4.15;;
966;SDS011;56108;48.730;9.304;2024-01-15T07:58:14;5.50;;;3.95;;
966;SDS011;56108;48.730;9.304;2024-01-15T08:00:22;11.38;;;5.35;;
966;SDS011;56108;48.730;9.304;2024-01-15T08:02:31;8.07;;;3.65;;
966;SDS011;56108;48.730;9.304;2024-01-15T08:04:41;6.57;;;4.25;;
966;SDS011;56108;48.730;9.304;2024-01-15T08:06:50;4.95;;;4.43;;
966;SDS011;56108;48.730;9.304;2024-01-15T08:09:02;7.10;;;4.47;;
966;SDS011;56108;48.730;9.304;2024-01-15T08:11:10;6.57;;;5.30;;
966;SDS011;56108;48.730;9.304;2024-01-15T08:13:21;5.95;;;4.68;;
966;SDS011;56108;48.730;9.304;2024-01-15T08:15:30;6.60;;;3.67;;
966;SDS011;56108;48.730;9.304;2024-01-15T08:17:36;5.93;;;4.55;;
966;SDS011;56108;48.730;9.304;2024-01-15T08:19:45;6.28;;;3.72;;
966;SDS011;56108;48.730;9.304;2024-01-15T08:21:55;4.57;;;4.03;;
966;SDS011;56108;48.730;9.304;2024-01-15T08:24:04;6.97;;;4.65;;
966;SDS011;56108;48.730;9.304;2024-01-15T08:26:13;5.40;;;3.67;;
966;SDS011;56108;48.730;9.304;2024-01-15T08:28:25;5.30;;;4.88;;
966;SDS011;56108;48.730;9.304;2024-01-15T08:30:34;7.38;;;4.43;;
966;SDS011;56108;48.730;9.304;2024-01-15T08:32:45;13.90;;;3.85;;
966;SDS011;56108;48.730;9.304;2024-01-15T08:34:54;3.35;;;3.13;;
966;SDS011;56108;48.730;9.304;2024-01-15T08:37:03;7.03;;;3.58;;
966;SDS011;56108;48.730;9.304;2024-01-15T08:39:12;8.48;;;3.95;;
966;SDS011;56108;48.730;9.304;2024-01-15T08:41:20;5.38;;;4.40;;
966;SDS011;56108;48.730;9.304;2024-01-15T08:43:31;10.25;;;4.35;;
966;SDS011;56108;48.730;9.304;2024-01-15T08:45:40;8.05;;;4.20;;
966;SDS011;56108;48.730;9.304;2024-01-15T08:47:48;5.30;;;3.00;;
966;SDS011;56108;48.730;9.304;2024-01-15T08:49:57;6.35;;;3.55;;
966;SDS011;56108;48.730;9.304;2024-01-15T08:52:06;5.68;;;3.00;;
966;SDS011;56108;48.730;9.304;2024-01-15T08:54:15;8.27;;;3.47;;
966;SDS011;56108;48.730;9.304;2024-01-15T08:56:26;3.88;;;2.35;;
966;SDS011;56108;48.730;9.304;2024-01-15T08:58:37;9.27;;;4.10;;
966;SDS011;56108;48.730;9.304;2024-01-15T09:00:46;5.60;;;4.38;;
966;SDS011;56108;48.730;9.304;2024-01-15T09:02:55;5.38;;;2.85;;
966;SDS011;56108;48.730;9.304;2024-01-15T09:05:06;4.63;;;2.95;;
966;SDS011;56108;48.730;9.304;2024-01-15T09:07:15;4.68;;;3.45;;
966;SDS011;56108;48.730;9.304;2024-01-15T09:09:24;9.45;;;3.42;;
966;SDS011;56108;48.730;9.304;2024-01-15T09:11:29;3.42;;;3.13;;
966;SDS011;56108;48.730;9.304;2024-01-15T09:13:41;5.00;;;2.97;;
966;SDS011;56108;48.730;9.304;2024-01-15T09:15:49;6.07;;;3.63;;
966;SDS011;56108;48.730;9.304;2024-01-15T09:17:58;5.32;;;3.35;;
966;SDS011;56108;48.730;9.304;2024-01-15T09:20:11;3.67;;;3.28;;
966;SDS011;56108;48.730;9.304;2024-01-15T09:22:20;5.88;;;4.68;;
966;SDS011;56108;48.730;9.304;2024-01-15T09:24:28;4.65;;;3.58;;
966;SDS011;56108;48.730;9.304;2024-01-15T09:26:37;3.65;;;3.35;;
966;SDS011;56108;48.730;9.304;2024-01-15T09:28:48;6.20;;;3.33;;
966;SDS011;56108;48.730;9.304;2024-01-15T09:30:56;4.55;;;2.38;;
966;SDS011;56108;48.730;9.304;2024-01-15T09:33:05;7.40;;;3.63;;
966;SDS011;56108;48.730;9.304;2024-01-15T09:35:14;3.63;;;3.25;;
966;SDS011;56108;48.730;9.304;2024-01-15T09:37:25;3.85;;;2.70;;
966;SDS011;56108;48.730;9.304;2024-01-15T09:39:50;5.05;;;2.65;;
966;SDS011;56108;48.730;9.304;2024-01-15T09:42:00;3.65;;;3.35;;
966;SDS011;56108;48.730;9.304;2024-01-15T09:44:12;3.55;;;1.90;;
966;SDS011;56108;48.730;9.304;2024-01-15T09:46:21;2.85;;;2.60;;
966;SDS011;56108;48.730;9.304;2024-01-15T09:48:33;4.72;;;3.53;;
966;SDS011;56108;48.730;9.304;2024-01-15T09:50:43;8.32;;;3.40;;
966;SDS011;56108;48.730;9.304;2024-01-15T09:52:52;3.90;;;2.97;;
966;SDS011;56108;48.730;9.304;2024-01-15T09:54:59;3.72;;;2.55;;
966;SDS011;56108;48.730;9.304;2024-01-15T09:57:12;5.70;;;2.63;;
966;SDS011;56108;48.730;9.304;2024-01-15T09:59:25;3.50;;;3.20;;
966;SDS011;56108;48.730;9.304;2024-01-15T10:01:35;6.00;;;2.95;;
966;SDS011;56108;48.730;9.304;2024-01-15T10:03:46;4.60;;;3.42;;
966;SDS011;56108;48.730;9.304;2024-01-15T10:05:54;5.90;;;4.13;;
966;SDS011;56108;48.730;9.304;2024-01-15T10:08:07;8.20;;;3.40;;
966;SDS011;56108;48.730;9.304;2024-01-15T10:10:13;4.97;;;2.70;;
966;SDS011;56108;48.730;9.304;2024-01-15T10:12:21;3.38;;;3.05;;
966;SDS011;56108;48.730;9.304;2024-01-15T10:14:35;2.80;;;2.50;;
966;SDS011;56108;48.730;9.304;2024-01-15T10:16:41;3.10;;;2.08;;
966;SDS011;56108;48.730;9.304;2024-01-15T10:18:50;6.38;;;2.85;;
966;SDS011;56108;48.730;9.304;2024-01-15T10:20:59;6.15;;;2.90;;
966;SDS011;56108;48.730;9.304;2024-01-15T10:23:08;6.72;;;3.08;;
966;SDS011;56108;48.730;9.304;2024-01-15T10:25:17;3.65;;;2.65;;
966;SDS011;56108;48.730;9.304;2024-01-15T10:27:30;3.65;;;2.28;;
966;SDS011;56108;48.730;9.304;2024-01-15T10:29:42;2.25;;;2.05;;
966;SDS011;56108;48.730;9.304;2024-01-15T10:31:51;3.42;;;3.03;;
966;SDS011;56108;48.730;9.304;2024-01-15T10:34:00;2.75;;;2.55;;
966;SDS011;56108;48.730;9.304;2024-01-15T10:36:23;4.53;;;3.20;;
966;SDS011;56108;48.730;9.304;2024-01-15T10:38:31;5.32;;;2.80;;
966;SDS011;56108;48.730;9.304;2024-01-15T10:40:40;5.25;;;2.95;;
966;SDS011;56108;48.730;9.304;2024-01-15T10:42:49;4.28;;;2.88;;
966;SDS011;56108;48.730;9.304;2024-01-15T10:45:01;5.93;;;3.55;;
966;SDS011;56108;48.730;9.304;2024-01-15T10:47:12;3.15;;;2.30;;
966;SDS011;56108;48.730;9.304;2024-01-15T10:49:21;3.65;;;3.13;;
966;SDS011;56108;48.730;9.304;2024-01-15T10:51:37;2.22;;;1.95;;
966;SDS011;56108;48.730;9.304;2024-01-15T10:53:46;6.70;;;3.28;;
966;SDS011;56108;48.730;9.304;2024-01-15T10:55:55;5.10;;;3.53;;
966;SDS011;56108;48.730;9.304;2024-01-15T10:58:05;4.15;;;3.35;;
966;SDS011;56108;48.730;9.304;2024-01-15T11:00:15;4.15;;;2.85;;
966;SDS011;56108;48.730;9.304;2024-01-15T11:02:24;3.53;;;2.65;;
966;SDS011;56108;48.730;9.304;2024-01-15T11:04:33;3.42;;;2.55;;
966;SDS011;56108;48.730;9.304;2024-01-15T11:06:43;5.47;;;1.90;;
966;SDS011;56108;48.730;9.304;2024-01-15T11:08:56;3.97;;;3.08;;
966;SDS011;56108;48.730;9.304;2024-01-15T11:11:02;2.80;;;2.60;;
966;SDS011;56108;48.730;9.304;2024-01-15T11:13:10;4.88;;;3.17;;
966;SDS011;56108;48.730;9.304;2024-01-15T11:15:22;2.80;;;2.50;;
966;SDS011;56108;48.730;9.304;2024-01-15T11:20:10;7.05;;;2.72;;
966;SDS011;56108;48.730;9.304;2024-01-15T11:24:56;2.30;;;2.10;;
966;SDS011;56108;48.730;9.304;2024-01-15T11:27:07;3.45;;;2.28;;
966;SDS011;56108;48.730;9.304;2024-01-15T11:29:28;4.88;;;2.90;;
966;SDS011;56108;48.730;9.304;2024-01-15T11:34:10;3.10;;;2.30;;
966;SDS011;56108;48.730;9.304;2024-01-15T11:36:19;2.85;;;2.00;;
966;SDS011;56108;48.730;9.304;2024-01-15T11:38:28;3.05;;;2.50;;
966;SDS011;56108;48.730;9.304;2024-01-15T11:40:37;10.05;;;3.83;;
966;SDS011;56108;48.730;9.304;2024-01-15T11:42:48;4.70;;;3.25;;
966;SDS011;56108;48.730;9.304;2024-01-15T11:44:57;3.28;;;2.92;;
966;SDS011;56108;48.730;9.304;2024-01-15T11:47:13;3.92;;;2.70;;
966;SDS011;56108;48.730;9.304;2024-01-15T11:49:23;5.05;;;3.22;;
966;SDS011;56108;48.730;9.304;2024-01-15T11:51:50;5.07;;;3.15;;
966;SDS011;56108;48.730;9.304;2024-01-15T11:54:00;6.75;;;3.25;;
966;SDS011;56108;48.730;9.304;2024-01-15T11:56:15;3.90;;;2.85;;
966;SDS011;56108;48.730;9.304;2024-01-15T11:58:22;4.45;;;3.33;;
966;SDS011;56108;48.730;9.304;2024-01-15T12:00:31;3.70;;;3.10;;
966;SDS011;56108;48.730;9.304;2024-01-15T12:02:43;3.22;;;2.65;;
966;SDS011;56108;48.730;9.304;2024-01-15T12:04:52;2.63;;;2.42;;
966;SDS011;56108;48.730;9.304;2024-01-15T12:06:58;3.10;;;2.65;;
966;SDS011;56108;48.730;9.304;2024-01-15T12:09:06;3.35;;;2.42;;
966;SDS011;56108;48.730;9.304;2024-01-15T12:11:15;5.63;;;2.40;;
966;SDS011;56108;48.730;9.304;2024-01-15T12:13:28;4.68;;;3.17;;
966;SDS011;56108;48.730;9.304;2024-01-15T12:15:36;3.25;;;2.95;;
966;SDS011;56108;48.730;9.304;2024-01-15T12:17:49;3.63;;;2.67;;
966;SDS011;56108;48.730;9.304;2024-01-15T12:19:55;3.03;;;2.50;;
966;SDS011;56108;48.730;9.304;2024-01-15T12:22:05;3.75;;;3.10;;
966;SDS011;56108;48.730;9.304;2024-01-15T12:24:14;2.92;;;2.55;;
966;SDS011;56108;48.730;9.304;2024-01-15T12:26:24;4.70;;;3.13;;
966;SDS011;56108;48.730;9.304;2024-01-15T12:28:32;6.13;;;2.88;;
966;SDS011;56108;48.730;9.304;2024-01-15T12:30:41;5.57;;;2.80;;
966;SDS011;56108;48.730;9.304;2024-01-15T12:32:53;2.85;;;2.65;;
966;SDS011;56108;48.730;9.304;2024-01-15T12:35:01;3.85;;;2.33;;
966;SDS011;56108;48.730;9.304;2024-01-15T12:37:10;3.53;;;2.88;;
966;SDS011;56108;48.730;9.304;2024-01-15T12:39:20;2.95;;;2.40;;
966;SDS011;56108;48.730;9.304;2024-01-15T12:41:29;3.03;;;2.72;;
966;SDS011;56108;48.730;9.304;2024-01-15T12:43:34;4.05;;;2.88;;
966;SDS011;56108;48.730;9.304;2024-01-15T12:45:43;6.03;;;3.33;;
966;SDS011;56108;48.730;9.304;2024-01-15T12:47:54;3.78;;;2.70;;
966;SDS011;56108;48.730;9.304;2024-01-15T12:50:00;2.45;;;2.20;;
966;SDS011;56108;48.730;9.304;2024-01-15T12:52:19;4.22;;;3.40;;
966;SDS011;56108;48.730;9.304;2024-01-15T12:54:29;4.60;;;3.30;;
966;SDS011;56108;48.730;9.304;2024-01-15T12:56:38;4.97;;;3.05;;
966;SDS011;56108;48.730;9.304;2024-01-15T12:58:47;4.28;;;3.67;;
966;SDS011;56108;48.730;9.304;2024-01-15T13:00:55;3.78;;;3.47;;
966;SDS011;56108;48.730;9.304;2024-01-15T13:03:07;7.32;;;3.85;;
966;SDS011;56108;48.730;9.304;2024-01-15T13:05:15;3.88;;;3.03;;
966;SDS011;56108;48.730;9.304;2024-01-15T13:07:22;4.45;;;3.50;;
966;SDS011;56108;48.730;9.304;2024-01-15T13:09:30;7.15;;;5.05;;
966;SDS011;56108;48.730;9.304;2024-01-15T13:11:39;5.53;;;4.18;;
966;SDS011;56108;48.730;9.304;2024-01-15T13:13:48;4.95;;;2.88;;
966;SDS011;56108;48.730;9.304;2024-01-15T13:15:56;4.95;;;3.10;;
966;SDS011;56108;48.730;9.304;2024-01-15T13:18:08;6.57;;;3.92;;
966;SDS011;56108;48.730;9.304;2024-01-15T13:20:17;4.93;;;4.53;;
966;SDS011;56108;48.730;9.304;2024-01-15T13:22:27;5.45;;;3.65;;
966;SDS011;56108;48.730;9.304;2024-01-15T13:24:37;4.65;;;3.35;;
966;SDS011;56108;48.730;9.304;2024-01-15T13:26:48;3.70;;;2.45;;
966;SDS011;56108;48.730;9.304;2024-01-15T13:28:57;2.90;;;2.65;;
966;SDS011;56108;48.730;9.304;2024-01-15T13:31:05;4.68;;;2.88;;
966;SDS011;56108;48.730;9.304;2024-01-15T13:33:16;5.15;;;3.50;;